Flight Track Log - Related Links

Times and Time Zones

All times are in EST time to prevent confusion due to time zone crossing. See the AAY855 flight status page for this flight to view local times or setup timezone preferences in your user account.

Time Position Orientation Groundspeed Altitude Reporting Facility
EST Latitude Longitude Course Direction KTS MPH feet Rate Location/Type
Fri 07:38:44 PM 41.6597 -86.2042 130° Southeast 215 247 4,200  Level Chicago Center
Fri 07:39:46 PM 41.6089 -86.1244 130° Southeast 274 315 7,500 2,855 Climbing Chicago Center
Fri 07:40:48 PM 41.5544 -86.0417 131° Southeast 294 338 10,100 2,081 Climbing Chicago Center
Fri 07:41:50 PM 41.4750 -85.9253 132° Southeast 362 417 11,800 1,887 Climbing Chicago Center
Fri 07:42:52 PM 41.4025 -85.8150 131° Southeast 395 455 14,000 2,129 Climbing Chicago Center
Fri 07:43:00 PM 41.2565 -85.6113 130° Southeast  Level FlightAware Approximate
Fri 07:43:54 PM 41.3258 -85.6997 132° Southeast 417 480 16,200  Level Chicago Center
Fri 07:44:56 PM 41.2292 -85.6117 146° Southeast 439 505 18,200 2,000 Climbing Chicago Center
Fri 07:45:57 PM 41.1167 -85.5747 166° South 419 482 20,300 1,854 Climbing Chicago Center
Fri 07:46:59 PM 41.0011 -85.5353 166° South 429 494 22,000 1,694 Climbing Chicago Center
Fri 07:48:01 PM 40.8567 -85.4861 166° South 446 513 23,800 1,645 Climbing Chicago Center
Fri 07:49:03 PM 40.7328 -85.4439 166° South 459 528 25,400 1,645 Climbing Chicago Center
Fri 07:50:05 PM 40.6192 -85.4042 165° South 459 528 27,200 1,742 Climbing Chicago Center
Fri 07:51:07 PM 40.4728 -85.3542 165° South 452 520 29,000 871 Climbing Chicago Center
Fri 07:52:09 PM 40.3522 -85.3111 165° South 449 517 29,000 629 Level Chicago Center
Fri 07:53:11 PM 40.2311 -85.2708 166° South 448 516 30,300 1,268 Climbing Chicago Center
Fri 07:54:12 PM 40.1089 -85.2292 165° South 450 518 31,600 1,073 Climbing Chicago Center
Fri 07:55:14 PM 39.9897 -85.1886 165° South 446 513 32,500 677 Climbing Chicago Center
Fri 07:56:16 PM 39.8694 -85.1481 165° South 444 511 33,000 242 Climbing Chicago Center
Fri 07:57:18 PM 39.7464 -85.1061 165° South 452 520 33,000  Level Chicago Center
Fri 07:58:20 PM 39.6211 -85.0639 165° South 459 528 33,000  Level Chicago Center
Fri 07:59:36 PM 39.4411 -85.0056 166° South 463 533 33,000  Level Indianapolis Center
Fri 08:00:38 PM 39.3136 -84.9639 166° South 467 537 33,000  Level Indianapolis Center
Fri 08:01:40 PM 39.1850 -84.9211 166° South 472 543 33,000  Level Indianapolis Center
Fri 08:02:41 PM 39.0469 -84.8769 166° South 476 548 33,000  Level Indianapolis Center
Fri 08:03:43 PM 38.9169 -84.8342 166° South 477 549 33,000  Level Indianapolis Center
Fri 08:04:45 PM 38.7972 -84.7947 166° South 477 549 33,000  Level Indianapolis Center
Fri 08:05:46 PM 38.6397 -84.7436 166° South 476 548 33,000  Level Indianapolis Center
Fri 08:06:48 PM 38.5100 -84.7006 165° South 477 549 33,000  Level Indianapolis Center
Fri 08:07:50 PM 38.3806 -84.6617 167° South 477 549 33,000  Level Indianapolis Center
Fri 08:08:52 PM 38.2525 -84.6186 165° South 477 549 33,000  Level Indianapolis Center
Fri 08:09:53 PM 38.1089 -84.5736 166° South 477 549 33,000  Level Indianapolis Center
Fri 08:10:55 PM 37.9936 -84.5347 165° South 477 549 33,000  Level Indianapolis Center
Fri 08:11:57 PM 37.8536 -84.4919 166° South 477 549 33,000  Level Indianapolis Center
Fri 08:12:58 PM 37.7142 -84.4472 166° South 477 549 33,000  Level Indianapolis Center
Fri 08:14:00 PM 37.5853 -84.4083 167° South 477 549 33,000  Level Indianapolis Center
Fri 08:15:02 PM 37.4561 -84.3681 166° South 477 549 33,000  Level Indianapolis Center
Fri 08:16:03 PM 37.3283 -84.3283 166° South 477 549 33,000  Level Indianapolis Center
Fri 08:17:05 PM 37.2003 -84.2886 166° South 476 548 33,000  Level Indianapolis Center
Fri 08:18:07 PM 37.0717 -84.2478 166° South 476 548 33,000  Level Indianapolis Center
Fri 08:19:08 PM 36.9214 -84.2022 166° South 476 548 33,000  Level Indianapolis Center
Fri 08:20:10 PM 36.7947 -84.1636 166° South 474 545 33,000  Level Indianapolis Center
Fri 08:21:12 PM 36.6656 -84.1236 166° South 474 545 33,000  Level Indianapolis Center
Fri 08:22:13 PM 36.5383 -84.0853 166° South 474 545 33,000  Level Indianapolis Center
Fri 08:23:15 PM 36.4111 -84.0594 171° South 473 544 33,000  Level Indianapolis Center
Fri 08:24:17 PM 36.2839 -84.0758 186° South 462 532 33,000  Level Indianapolis Center
Fri 08:25:18 PM 36.1558 -84.0944 187° South 461 531 33,000  Level Indianapolis Center
Fri 08:25:58 PM 36.0542 -84.1133 189° South 458 527 33,000  Level Atlanta Center
Fri 08:26:58 PM 35.9269 -84.1286 186° South 458 527 33,000  Level Atlanta Center
Fri 08:27:58 PM 35.7994 -84.1464 186° South 464 534 33,000  Level Atlanta Center
Fri 08:28:58 PM 35.6744 -84.1614 186° South 464 534 33,000  Level Atlanta Center
Fri 08:29:58 PM 35.5492 -84.1792 187° South 459 528 33,000  Level Atlanta Center
Fri 08:30:58 PM 35.4261 -84.1942 186° South 459 528 33,000  Level Atlanta Center
Fri 08:31:58 PM 35.3031 -84.2119 187° South 454 522 33,000  Level Atlanta Center
Fri 08:32:58 PM 35.1944 -84.2269 186° South 449 517 33,000  Level Atlanta Center
Fri 08:33:58 PM 35.0714 -84.2444 187° South 443 510 33,000  Level Atlanta Center
Fri 08:34:58 PM 34.9503 -84.2617 187° South 443 510 33,000  Level Atlanta Center
Fri 08:35:58 PM 34.8167 -84.2742 184° South 443 510 33,000  Level Atlanta Center
Fri 08:36:58 PM 34.6956 -84.2914 187° South 443 510 33,000  Level Atlanta Center
Fri 08:37:58 PM 34.5725 -84.3086 187° South 443 510 33,000  Level Atlanta Center
Fri 08:38:58 PM 34.4472 -84.3233 186° South 443 510 33,000  Level Atlanta Center
Fri 08:39:58 PM 34.3239 -84.3431 188° South 443 510 33,000  Level Atlanta Center
Fri 08:40:58 PM 34.2008 -84.3578 186° South 450 518 33,000  Level Atlanta Center
Fri 08:41:58 PM 34.0797 -84.3747 187° South 462 532 33,000  Level Atlanta Center
Fri 08:42:58 PM 33.9544 -84.3944 187° South 470 541 33,000  Level Atlanta Center
Fri 08:43:58 PM 33.8250 -84.4089 185° South 464 534 33,000  Level Atlanta Center
Fri 08:44:58 PM 33.6975 -84.4258 186° South 464 534 33,000  Level Atlanta Center
Fri 08:45:58 PM 33.5597 -84.4353 183° South 464 534 33,000  Level Atlanta Center
Fri 08:46:58 PM 33.4306 -84.4322 179° South 464 534 33,000  Level Atlanta Center
Fri 08:47:58 PM 33.2989 -84.4289 179° South 464 534 33,000  Level Atlanta Center
Fri 08:48:58 PM 33.1694 -84.4258 179° South 458 527 33,000  Level Atlanta Center
Fri 08:49:58 PM 33.0381 -84.4278 181° South 463 533 33,000  Level Atlanta Center
Fri 08:50:58 PM 32.9108 -84.4247 179° South 463 533 33,000  Level Atlanta Center
Fri 08:51:58 PM 32.7792 -84.4192 178° South 470 541 33,000  Level Atlanta Center
Fri 08:52:58 PM 32.6414 -84.4164 178° South 481 554 33,000  Level Atlanta Center
Fri 08:53:00 PM 32.6566 -84.4153 178° South  Level FlightAware Approximate
Fri 08:56:13 PM 32.2139 -84.4075 179° South 495 570 33,000  Level Jacksonville Center
Fri 08:57:13 PM 32.0722 -84.3881 173° South 501 577 33,000  Level Jacksonville Center
Fri 08:58:13 PM 31.9328 -84.3467 166° South 511 588 33,000  Level Jacksonville Center
Fri 08:59:13 PM 31.7933 -84.2981 163° South 516 594 33,000  Level Jacksonville Center
Fri 09:00:13 PM 31.6497 -84.2519 165° South 521 600 33,000  Level Jacksonville Center
Fri 09:01:13 PM 31.5061 -84.2083 165° South 531 611 33,000  Level Jacksonville Center
Fri 09:02:13 PM 31.3583 -84.1625 165° South 536 617 33,000  Level Jacksonville Center
Fri 09:03:13 PM 31.2128 -84.1169 165° South 541 623 33,000  Level Jacksonville Center
Fri 09:04:13 PM 31.0669 -84.0714 165° South 541 623 33,000  Level Jacksonville Center
Fri 09:05:13 PM 30.9214 -84.0258 165° South 541 623 33,000  Level Jacksonville Center
Fri 09:06:13 PM 30.7733 -83.9806 165° South 546 628 33,000  Level Jacksonville Center
Fri 09:07:13 PM 30.6256 -83.9356 165° South 546 628 33,000 -50 Level Jacksonville Center
Fri 09:08:13 PM 30.4839 -83.8906 165° South 540 621 32,900 -50 Descending Jacksonville Center
Fri 09:09:13 PM 30.3319 -83.8433 165° South 551 634 32,900  Level Jacksonville Center
Fri 09:10:13 PM 30.1839 -83.7986 165° South 551 634 32,900  Level Jacksonville Center
Fri 09:11:13 PM 30.0381 -83.7586 167° South 546 628 32,900  Level Jacksonville Center
Fri 09:12:13 PM 29.8922 -83.7119 164° South 546 628 32,900 -400 Level Jacksonville Center
Fri 09:13:13 PM 29.7422 -83.6675 166° South 551 634 32,100 -1,400 Descending Jacksonville Center
Fri 09:14:13 PM 29.5817 -83.6161 164° South 546 628 30,100 -1,850 Descending Jacksonville Center
Fri 09:15:13 PM 29.4381 -83.5744 166° South 546 628 28,400 -1,550 Descending Jacksonville Center
Fri 09:16:13 PM 29.2983 -83.5308 165° South 540 621 27,000 -700 Descending Jacksonville Center
Fri 09:17:13 PM 29.1567 -83.4681 159° South 533 613 27,000 -50 Level Jacksonville Center
Fri 09:18:13 PM 29.0214 -83.3817 151° Southeast 544 626 26,900 -350 Descending Jacksonville Center
Fri 09:19:13 PM 28.8881 -83.2956 151° Southeast 544 626 26,300 -1,600 Descending Jacksonville Center
Fri 09:20:13 PM 28.7589 -83.2147 151° Southeast 552 635 23,700 -2,600 Descending Jacksonville Center
Fri 09:21:13 PM 28.6378 -83.1836 167° South 469 540 21,100 -2,623 Descending Jacksonville Center
Fri 09:23:00 PM 28.4667 -83.0833 153° Southeast 403 464 16,400 -2,758 Descending Tampa TRACON
Fri 09:23:54 PM 28.4000 -83.0000 132° Southeast 385 443 13,700 -2,409 Descending Tampa TRACON
Fri 09:25:12 PM 28.2833 -82.9500 159° South 371 427 11,100 -1,478 Descending Tampa TRACON
Fri 09:26:12 PM 28.1833 -82.9167 164° South 345 397 10,300 -1,150 Descending Tampa TRACON
Fri 09:27:12 PM 28.1000 -82.9000 170° South 303 349 8,800 -1,905 Descending Tampa TRACON
Fri 09:28:18 PM 28.0167 -82.8833 170° South 274 315 6,300 -2,294 Descending Tampa TRACON
Fri 09:28:54 PM 27.9667 -82.8667 164° South 266 306 4,900 -2,188 Descending Tampa TRACON
Fri 09:29:54 PM 27.9167 -82.8333 149° Southeast 238 274 2,800 -1,150 Descending Tampa TRACON
Fri 09:30:54 PM 27.8667 -82.8000 149° Southeast 183 211 2,600 -300 Descending Tampa TRACON
Fri 09:31:54 PM 27.8333 -82.7500 127° Southeast 170 196 2,200 -650 Descending Tampa TRACON
Fri 09:32:54 PM 27.8333 -82.7000 90° East 140 161 1,300 -700 Descending Tampa TRACON
Fri 09:33:54 PM 27.8667 -82.6833 24° Northeast 127 146 800 -579 Descending Tampa TRACON
Fri 09:34:48 PM 27.9000 -82.6833 360° North 135 155 200 -667 Descending Tampa TRACON

Login

Don't have an account? Register now (free) for customized features, flight alerts, and more!